createdAt,value
2023-02-09T00:01:36.870Z,10.32
2023-02-09T00:04:05.303Z,10.38
2023-02-09T00:06:33.488Z,10.05
2023-02-09T00:09:02.483Z,10.38
2023-02-09T00:11:49.928Z,10.38
2023-02-09T00:14:21.713Z,10.02
2023-02-09T00:16:51.121Z,10.63
2023-02-09T00:19:20.414Z,10.60
2023-02-09T00:21:49.252Z,10.07
2023-02-09T00:24:17.438Z,11.30
2023-02-09T00:26:47.609Z,9.98
2023-02-09T00:29:15.972Z,11.13
2023-02-09T00:31:44.314Z,11.45
2023-02-09T00:34:12.766Z,10.73
2023-02-09T00:36:40.938Z,10.05
2023-02-09T00:39:09.626Z,10.90
2023-02-09T00:41:55.281Z,11.52
2023-02-09T00:44:24.743Z,10.00
2023-02-09T00:46:53.224Z,11.10
2023-02-09T00:49:22.002Z,11.20
2023-02-09T00:51:50.078Z,10.30
2023-02-09T00:54:18.161Z,10.73
2023-02-09T00:56:46.629Z,11.02
2023-02-09T00:59:15.136Z,10.05
2023-02-09T01:01:44.710Z,10.40
2023-02-09T01:04:12.987Z,11.30
2023-02-09T01:06:41.209Z,10.55
2023-02-09T01:09:09.793Z,10.82
2023-02-09T01:11:37.966Z,10.57
2023-02-09T01:14:06.720Z,11.23
2023-02-09T01:16:34.954Z,10.48
2023-02-09T01:19:04.977Z,10.35
2023-02-09T01:21:33.349Z,10.63
2023-02-09T01:24:01.630Z,10.60
2023-02-09T01:26:29.723Z,9.45
2023-02-09T01:28:57.860Z,9.75
2023-02-09T01:31:28.188Z,10.23
2023-02-09T01:33:59.049Z,10.32
2023-02-09T01:36:29.379Z,10.38
2023-02-09T01:38:59.569Z,10.02
2023-02-09T01:41:28.657Z,10.25
2023-02-09T01:44:00.888Z,9.85
2023-02-09T01:46:31.238Z,9.85
2023-02-09T01:49:06.316Z,10.40
2023-02-09T01:51:39.432Z,10.25
2023-02-09T01:56:39.885Z,10.23
2023-02-09T01:59:09.053Z,9.63
2023-02-09T02:01:38.169Z,10.52
2023-02-09T02:04:07.380Z,11.05
2023-02-09T02:06:37.615Z,10.10
2023-02-09T02:09:11.300Z,10.45
2023-02-09T02:11:41.251Z,10.73
2023-02-09T02:14:29.248Z,9.70
2023-02-09T02:17:08.599Z,10.40
2023-02-09T02:20:11.179Z,10.23
2023-02-09T02:23:01.270Z,10.20
2023-02-09T02:25:57.569Z,10.27
2023-02-09T02:28:42.299Z,10.55
2023-02-09T02:31:55.777Z,9.85
2023-02-09T02:34:32.943Z,10.18
2023-02-09T02:37:17.662Z,9.88
2023-02-09T02:39:52.062Z,10.90
2023-02-09T02:42:44.524Z,10.13
2023-02-09T02:45:19.725Z,11.88
2023-02-09T02:47:56.137Z,11.15
2023-02-09T02:50:30.614Z,10.05
2023-02-09T02:53:03.036Z,10.88
2023-02-09T02:55:33.921Z,11.03
2023-02-09T02:58:07.688Z,11.00
2023-02-09T03:00:40.694Z,11.75
2023-02-09T03:03:13.148Z,10.23
2023-02-09T03:05:43.988Z,10.00
2023-02-09T03:08:12.130Z,10.05
2023-02-09T03:10:43.961Z,10.25
2023-02-09T03:13:25.621Z,10.75
2023-02-09T03:16:07.421Z,10.85
2023-02-09T03:18:45.020Z,10.27
2023-02-09T03:21:19.782Z,10.27
2023-02-09T03:23:55.995Z,9.85
2023-02-09T03:26:30.102Z,10.60
2023-02-09T03:29:00.207Z,10.23
2023-02-09T03:31:29.931Z,10.45
2023-02-09T03:33:59.461Z,10.10
2023-02-09T03:36:34.930Z,10.25
2023-02-09T03:39:03.026Z,9.98
2023-02-09T03:41:31.137Z,10.32
2023-02-09T03:44:16.599Z,10.32
2023-02-09T03:46:45.226Z,8.95
2023-02-09T03:49:14.839Z,10.32
2023-02-09T03:51:44.478Z,9.93
2023-02-09T03:54:12.687Z,10.00
2023-02-09T03:56:40.738Z,9.77
2023-02-09T03:59:08.979Z,9.85
2023-02-09T04:01:37.091Z,9.35
2023-02-09T04:04:06.032Z,9.63
2023-02-09T04:06:35.775Z,9.63
2023-02-09T04:09:06.825Z,9.05
2023-02-09T04:11:34.989Z,9.25
2023-02-09T04:14:03.317Z,10.15
2023-02-09T04:16:32.011Z,9.38
2023-02-09T04:19:00.192Z,9.18
2023-02-09T04:21:28.284Z,10.30
2023-02-09T04:23:56.386Z,10.32
2023-02-09T04:26:25.857Z,10.07
2023-02-09T04:28:58.035Z,10.45
2023-02-09T04:31:26.815Z,9.88
2023-02-09T04:33:55.636Z,9.73
2023-02-09T04:36:24.132Z,10.13
2023-02-09T04:38:52.388Z,10.40
2023-02-09T04:41:20.598Z,10.07
2023-02-09T04:43:50.045Z,10.45
2023-02-09T04:46:20.069Z,9.77
2023-02-09T04:48:51.673Z,9.85
2023-02-09T04:51:19.897Z,10.25
2023-02-09T04:53:47.942Z,9.95
2023-02-09T04:56:17.697Z,9.85
2023-02-09T04:59:04.000Z,9.35
2023-02-09T05:01:33.941Z,10.13
2023-02-09T05:04:02.024Z,9.70
2023-02-09T05:06:30.407Z,9.98
2023-02-09T05:08:58.658Z,10.00
2023-02-09T05:11:30.847Z,9.90
2023-02-09T05:13:58.956Z,10.38
2023-02-09T05:16:27.118Z,10.07
2023-02-09T05:18:56.612Z,9.68
2023-02-09T05:21:24.721Z,9.38
2023-02-09T05:23:52.934Z,10.45
2023-02-09T05:26:21.161Z,9.57
2023-02-09T05:28:49.200Z,10.18
2023-02-09T05:31:17.977Z,9.85
2023-02-09T05:33:46.119Z,10.32
2023-02-09T05:36:15.861Z,9.77
2023-02-09T05:38:44.035Z,9.85
2023-02-09T05:41:35.197Z,10.48
2023-02-09T05:44:03.479Z,10.20
2023-02-09T05:46:31.562Z,9.55
2023-02-09T05:48:59.679Z,9.63
2023-02-09T05:51:29.207Z,9.15
2023-02-09T05:53:57.412Z,9.75
2023-02-09T05:56:25.488Z,9.60
2023-02-09T05:58:53.707Z,9.00
2023-02-09T06:01:21.828Z,9.35
2023-02-09T06:03:50.093Z,9.77
2023-02-09T06:06:18.164Z,9.52
2023-02-09T06:08:47.712Z,9.45
2023-02-09T06:11:15.877Z,9.05
2023-02-09T06:13:44.125Z,9.40
2023-02-09T06:16:12.316Z,9.73
2023-02-09T06:18:40.473Z,9.20
2023-02-09T06:21:08.548Z,9.40
2023-02-09T06:23:36.752Z,9.85
2023-02-09T06:26:09.159Z,8.52
2023-02-09T06:28:37.924Z,10.38
2023-02-09T06:31:07.016Z,9.38
2023-02-09T06:33:36.419Z,9.80
2023-02-09T06:36:06.021Z,9.50
2023-02-09T06:38:34.915Z,9.05
2023-02-09T06:41:03.155Z,9.13
2023-02-09T06:43:32.708Z,9.48
2023-02-09T06:46:06.580Z,9.98
2023-02-09T06:48:34.726Z,9.68
2023-02-09T06:51:02.987Z,9.80
2023-02-09T06:53:31.632Z,9.43
2023-02-09T06:56:02.979Z,10.13
2023-02-09T06:58:32.587Z,9.55
2023-02-09T07:01:03.319Z,9.77
2023-02-09T07:03:31.510Z,9.52
2023-02-09T07:06:05.445Z,10.25
2023-02-09T07:08:33.580Z,9.40
2023-02-09T07:11:06.228Z,9.68
2023-02-09T07:13:36.391Z,9.65
2023-02-09T07:16:05.886Z,9.52
2023-02-09T07:18:34.441Z,9.13
2023-02-09T07:21:04.494Z,9.07
2023-02-09T07:23:32.844Z,9.07
2023-02-09T07:26:04.086Z,8.40
2023-02-09T07:28:32.583Z,8.73
2023-02-09T07:31:06.127Z,9.13
2023-02-09T07:33:34.799Z,9.30
2023-02-09T07:36:05.248Z,8.65
2023-02-09T07:38:33.636Z,9.50
2023-02-09T07:41:02.551Z,9.55
2023-02-09T07:43:31.175Z,8.77
2023-02-09T07:46:08.619Z,9.18
2023-02-09T07:48:37.522Z,9.32
2023-02-09T07:51:06.568Z,9.02
2023-02-09T07:53:34.984Z,9.18
2023-02-09T07:56:03.071Z,9.27
2023-02-09T07:58:31.166Z,9.07
2023-02-09T08:01:04.927Z,8.82
2023-02-09T08:03:37.071Z,9.13
2023-02-09T08:06:12.435Z,9.77
2023-02-09T08:08:40.564Z,9.20
2023-02-09T08:11:09.402Z,8.98
2023-02-09T08:13:40.850Z,8.93
2023-02-09T08:16:12.286Z,9.43
2023-02-09T08:18:45.852Z,9.40
2023-02-09T08:21:17.355Z,8.85
2023-02-09T08:23:50.352Z,9.55
2023-02-09T08:26:18.600Z,9.57
2023-02-09T08:28:47.343Z,9.35
2023-02-09T08:31:35.493Z,8.43
2023-02-09T08:34:05.282Z,8.95
2023-02-09T08:36:34.357Z,8.93
2023-02-09T08:39:03.227Z,9.02
2023-02-09T08:41:31.286Z,8.88
2023-02-09T08:43:59.319Z,8.75
2023-02-09T08:46:27.716Z,9.18
2023-02-09T08:48:55.881Z,9.20
2023-02-09T08:51:25.918Z,9.20
2023-02-09T08:53:57.146Z,9.52
2023-02-09T08:56:25.216Z,9.27
2023-02-09T08:58:56.187Z,8.75
2023-02-09T09:01:24.428Z,8.98
2023-02-09T09:03:52.694Z,9.10
2023-02-09T09:06:22.122Z,8.75
2023-02-09T09:08:52.211Z,8.63
2023-02-09T09:11:20.855Z,9.00
2023-02-09T09:13:49.033Z,9.25
2023-02-09T09:16:18.800Z,8.65
2023-02-09T09:18:47.233Z,8.55
2023-02-09T09:21:17.141Z,8.82
2023-02-09T09:23:45.786Z,8.63
2023-02-09T09:26:16.177Z,9.20
2023-02-09T09:28:44.584Z,8.60
2023-02-09T09:31:15.271Z,9.35
2023-02-09T09:33:43.986Z,9.02
2023-02-09T09:36:14.611Z,9.40
2023-02-09T09:38:43.153Z,8.98
2023-02-09T09:41:23.807Z,9.20
2023-02-09T09:43:54.098Z,8.95
2023-02-09T09:46:27.305Z,9.82
2023-02-09T09:48:58.499Z,9.30
2023-02-09T09:51:35.732Z,8.45
2023-02-09T09:54:06.274Z,8.82
2023-02-09T09:56:35.741Z,8.30
2023-02-09T09:59:04.180Z,8.77
2023-02-09T10:01:34.324Z,10.23
2023-02-09T10:04:07.243Z,9.85
2023-02-09T10:06:41.591Z,8.80
2023-02-09T10:09:23.089Z,10.10
2023-02-09T10:11:58.145Z,9.10
2023-02-09T10:14:26.345Z,9.65
2023-02-09T10:16:54.537Z,9.32
2023-02-09T10:19:25.311Z,9.18
2023-02-09T10:21:54.654Z,8.68
2023-02-09T10:24:25.584Z,9.27
2023-02-09T10:27:07.788Z,8.82
2023-02-09T10:29:36.596Z,9.30
2023-02-09T10:32:13.446Z,9.15
2023-02-09T10:34:47.511Z,9.57
2023-02-09T10:37:26.428Z,9.10
2023-02-09T10:40:03.102Z,8.70
2023-02-09T10:42:35.328Z,8.77
2023-02-09T10:45:13.441Z,9.18
2023-02-09T10:47:41.678Z,8.88
2023-02-09T10:50:22.436Z,8.73
2023-02-09T10:53:02.021Z,8.93
2023-02-09T10:55:36.207Z,9.05
2023-02-09T10:58:13.164Z,8.32
2023-02-09T11:00:51.654Z,7.93
2023-02-09T11:03:22.382Z,7.72
2023-02-09T11:05:59.642Z,7.93
2023-02-09T11:08:38.774Z,8.55
2023-02-09T11:11:10.363Z,7.85
2023-02-09T11:13:42.451Z,8.40
2023-02-09T11:16:40.798Z,8.38
2023-02-09T11:19:19.309Z,7.95
2023-02-09T11:22:00.893Z,8.60
2023-02-09T11:24:47.265Z,8.55
2023-02-09T11:27:29.743Z,8.18
2023-02-09T11:30:12.542Z,8.38
2023-02-09T11:32:47.463Z,7.97
2023-02-09T11:35:19.869Z,8.23
2023-02-09T11:37:54.809Z,8.47
2023-02-09T11:40:28.317Z,8.02
2023-02-09T11:43:05.854Z,7.55
2023-02-09T11:45:43.542Z,7.85
2023-02-09T11:48:14.840Z,7.75
2023-02-09T11:50:52.473Z,7.75
2023-02-09T11:53:29.202Z,7.65
2023-02-09T11:55:59.701Z,7.65
2023-02-09T11:58:39.964Z,7.60
2023-02-09T12:01:24.986Z,7.40
2023-02-09T12:04:07.238Z,7.88
2023-02-09T12:06:40.864Z,7.53
2023-02-09T12:09:26.711Z,7.47
2023-02-09T12:12:05.385Z,7.43
2023-02-09T12:15:03.268Z,7.15
2023-02-09T12:17:42.341Z,7.15
2023-02-09T12:20:24.957Z,7.35
2023-02-09T12:23:07.753Z,7.87
2023-02-09T12:26:00.633Z,7.30
2023-02-09T12:28:45.552Z,6.85
2023-02-09T12:31:17.517Z,7.18
2023-02-09T12:34:13.784Z,6.50
2023-02-09T12:37:18.083Z,7.60
2023-02-09T12:40:24.146Z,7.25
2023-02-09T12:43:13.641Z,6.85
2023-02-09T12:45:43.463Z,7.07
2023-02-09T12:48:17.591Z,6.63
2023-02-09T12:50:51.605Z,6.95
2023-02-09T12:53:50.633Z,6.80
2023-02-09T12:56:36.654Z,6.57
2023-02-09T12:59:15.402Z,6.93
2023-02-09T13:02:23.982Z,6.82
2023-02-09T13:05:02.663Z,6.25
2023-02-09T13:07:41.569Z,6.68
2023-02-09T13:10:22.107Z,6.53
2023-02-09T13:12:56.022Z,6.85
2023-02-09T13:15:30.275Z,6.07
2023-02-09T13:18:16.189Z,6.25
2023-02-09T13:21:17.174Z,6.60
2023-02-09T13:24:00.600Z,6.45
2023-02-09T13:29:19.370Z,6.40
2023-02-09T13:32:01.937Z,6.25
2023-02-09T13:34:36.862Z,6.60
2023-02-09T13:37:19.443Z,6.30
2023-02-09T13:39:55.009Z,6.63
2023-02-09T13:42:27.994Z,6.50
2023-02-09T13:44:58.995Z,6.40
2023-02-09T13:47:29.312Z,6.50
2023-02-09T13:49:59.336Z,6.85
2023-02-09T13:52:28.299Z,6.38
2023-02-09T13:54:57.812Z,6.60
2023-02-09T13:57:33.027Z,6.40
2023-02-09T14:00:10.471Z,6.13
2023-02-09T14:02:39.533Z,6.05
2023-02-09T14:05:11.109Z,6.32
2023-02-09T14:07:39.866Z,6.90
2023-02-09T14:10:16.799Z,5.90
2023-02-09T14:12:55.572Z,6.60
2023-02-09T14:15:48.192Z,6.53
2023-02-09T14:18:24.022Z,6.55
2023-02-09T14:21:03.915Z,6.38
2023-02-09T14:23:35.243Z,6.50
2023-02-09T14:26:07.844Z,6.38
2023-02-09T14:28:38.487Z,6.37
2023-02-09T14:31:07.781Z,6.30
2023-02-09T14:33:38.362Z,6.57
2023-02-09T14:36:07.667Z,5.88
2023-02-09T14:38:39.028Z,6.95
2023-02-09T14:41:29.964Z,7.05
2023-02-09T14:44:03.353Z,7.00
2023-02-09T14:46:49.235Z,6.70
2023-02-09T14:49:18.088Z,7.00
2023-02-09T14:51:47.107Z,6.68
2023-02-09T14:54:26.726Z,6.70
2023-02-09T14:56:58.825Z,6.68
2023-02-09T14:59:27.153Z,6.43
2023-02-09T15:01:56.031Z,6.70
2023-02-09T15:04:24.299Z,6.63
2023-02-09T15:07:01.353Z,6.15
2023-02-09T15:09:36.397Z,6.15
2023-02-09T15:12:07.372Z,6.22
2023-02-09T15:14:45.718Z,6.55
2023-02-09T15:17:16.517Z,6.78
2023-02-09T15:19:45.369Z,6.43
2023-02-09T15:22:16.246Z,6.15
2023-02-09T15:24:44.969Z,6.53
2023-02-09T15:27:26.063Z,6.40
2023-02-09T15:29:57.979Z,6.50
2023-02-09T15:32:28.018Z,6.43
2023-02-09T15:34:56.167Z,6.03
2023-02-09T15:37:27.870Z,6.55
2023-02-09T15:39:59.681Z,6.63
2023-02-09T15:45:36.318Z,6.53
2023-02-09T15:48:05.533Z,6.20
2023-02-09T15:50:35.379Z,6.60
2023-02-09T15:53:06.041Z,6.32
2023-02-09T15:55:36.249Z,6.82
2023-02-09T15:58:14.985Z,6.32
2023-02-09T16:00:44.121Z,6.50
2023-02-09T16:03:16.236Z,6.25
2023-02-09T16:05:45.328Z,6.20
2023-02-09T16:08:20.476Z,7.10
2023-02-09T16:10:49.496Z,7.10
2023-02-09T16:13:20.434Z,6.82
2023-02-09T16:15:49.108Z,7.00
2023-02-09T16:18:17.440Z,6.72
2023-02-09T16:20:48.101Z,6.75
2023-02-09T16:23:20.828Z,6.90
2023-02-09T16:25:51.675Z,7.60
2023-02-09T16:28:22.284Z,6.90
2023-02-09T16:30:53.457Z,6.63
2023-02-09T16:33:22.965Z,6.53
2023-02-09T16:35:54.378Z,6.85
2023-02-09T16:38:25.135Z,6.57
2023-02-09T16:40:54.744Z,6.70
2023-02-09T16:43:25.001Z,6.93
2023-02-09T16:46:03.456Z,6.57
2023-02-09T16:48:34.612Z,6.55
2023-02-09T16:51:03.569Z,6.88
2023-02-09T16:53:34.287Z,6.63
2023-02-09T16:56:04.862Z,6.68
2023-02-09T16:58:34.567Z,6.95
2023-02-09T17:01:03.733Z,6.90
2023-02-09T17:03:37.835Z,7.25
2023-02-09T17:06:07.686Z,7.07
2023-02-09T17:08:35.891Z,6.43
2023-02-09T17:11:05.618Z,6.47
2023-02-09T17:13:35.283Z,6.57
2023-02-09T17:16:06.487Z,6.40
2023-02-09T17:18:39.921Z,6.65
2023-02-09T17:21:11.395Z,6.40
2023-02-09T17:23:39.787Z,6.80
2023-02-09T17:26:08.354Z,6.70
2023-02-09T17:28:37.991Z,6.78
2023-02-09T17:31:17.703Z,6.35
2023-02-09T17:33:48.342Z,6.55
2023-02-09T17:36:26.844Z,6.13
2023-02-09T17:38:58.261Z,6.70
2023-02-09T17:41:32.320Z,6.53
2023-02-09T17:44:24.115Z,6.40
2023-02-09T17:47:00.172Z,6.72
2023-02-09T17:49:28.396Z,6.75
2023-02-09T17:51:57.302Z,6.60
2023-02-09T17:54:27.809Z,6.72
2023-02-09T17:56:56.631Z,6.75
2023-02-09T17:59:26.424Z,6.18
2023-02-09T18:01:56.263Z,7.07
2023-02-09T18:04:27.295Z,6.85
2023-02-09T18:06:57.728Z,6.60
2023-02-09T18:09:26.231Z,6.25
2023-02-09T18:12:02.115Z,6.32
2023-02-09T18:14:33.369Z,7.18
2023-02-09T18:17:05.450Z,6.35
2023-02-09T18:19:34.184Z,6.65
2023-02-09T18:22:03.898Z,6.72
2023-02-09T18:24:34.340Z,6.47
2023-02-09T18:27:03.397Z,6.53
2023-02-09T18:29:33.357Z,6.63
2023-02-09T18:32:03.346Z,6.47
2023-02-09T18:34:31.712Z,6.57
2023-02-09T18:36:59.914Z,6.35
2023-02-09T18:39:28.104Z,6.95
2023-02-09T18:41:57.139Z,6.50
2023-02-09T18:44:29.317Z,6.63
2023-02-09T18:47:01.980Z,6.40
2023-02-09T18:49:30.958Z,7.15
2023-02-09T18:51:59.778Z,6.88
2023-02-09T18:54:29.173Z,6.55
2023-02-09T18:56:58.204Z,6.50
2023-02-09T18:59:29.521Z,6.78
2023-02-09T19:01:59.999Z,6.90
2023-02-09T19:04:31.407Z,6.88
2023-02-09T19:06:59.954Z,7.03
2023-02-09T19:09:31.212Z,6.88
2023-02-09T19:11:59.789Z,7.35
2023-02-09T19:14:40.156Z,6.82
2023-02-09T19:17:12.636Z,6.95
2023-02-09T19:19:40.836Z,7.05
2023-02-09T19:22:10.099Z,7.25
2023-02-09T19:24:38.736Z,7.10
2023-02-09T19:27:09.446Z,7.45
2023-02-09T19:29:41.474Z,6.40
2023-02-09T19:32:12.710Z,7.15
2023-02-09T19:34:45.381Z,7.50
2023-02-09T19:37:16.407Z,6.72
2023-02-09T19:39:52.687Z,6.78
2023-02-09T19:42:22.122Z,7.25
2023-02-09T19:44:50.923Z,6.90
2023-02-09T19:47:25.924Z,7.18
2023-02-09T19:49:55.073Z,7.70
2023-02-09T19:52:23.673Z,6.82
2023-02-09T19:54:52.556Z,7.40
2023-02-09T19:57:23.508Z,6.80
2023-02-09T19:59:53.965Z,7.18
2023-02-09T20:02:24.218Z,7.68
2023-02-09T20:04:54.021Z,7.53
2023-02-09T20:07:22.484Z,7.78
2023-02-09T20:09:52.379Z,7.40
2023-02-09T20:12:22.183Z,7.60
2023-02-09T20:14:51.127Z,7.68
2023-02-09T20:19:55.204Z,8.23
2023-02-09T20:22:23.507Z,8.35
2023-02-09T20:24:51.897Z,8.73
2023-02-09T20:27:20.614Z,8.10
2023-02-09T20:29:50.957Z,8.75
2023-02-09T20:32:19.727Z,8.77
2023-02-09T20:34:48.113Z,8.35
2023-02-09T20:37:19.098Z,9.38
2023-02-09T20:39:47.548Z,8.57
2023-02-09T20:42:32.822Z,9.13
2023-02-09T20:45:18.714Z,9.05
2023-02-09T20:47:47.097Z,9.40
2023-02-09T20:50:16.757Z,9.65
2023-02-09T20:52:46.716Z,9.77
2023-02-09T20:55:15.311Z,9.82
2023-02-09T20:57:44.099Z,9.77
2023-02-09T21:00:14.543Z,10.50
2023-02-09T21:02:42.970Z,9.75
2023-02-09T21:05:11.713Z,10.45
2023-02-09T21:07:40.056Z,10.73
2023-02-09T21:10:12.880Z,10.63
2023-02-09T21:12:41.196Z,11.07
2023-02-09T21:15:10.180Z,10.50
2023-02-09T21:17:43.704Z,10.93
2023-02-09T21:20:12.711Z,11.13
2023-02-09T21:22:41.150Z,11.20
2023-02-09T21:25:13.730Z,11.45
2023-02-09T21:27:44.794Z,11.57
2023-02-09T21:30:13.954Z,11.77
2023-02-09T21:32:42.194Z,11.20
2023-02-09T21:35:11.196Z,11.27
2023-02-09T21:37:39.752Z,11.70
2023-02-09T21:40:08.577Z,11.25
2023-02-09T21:42:39.337Z,11.20
2023-02-09T21:45:08.379Z,11.38
2023-02-09T21:47:39.279Z,12.45
2023-02-09T21:50:10.048Z,11.40
2023-02-09T21:52:38.296Z,12.48
2023-02-09T21:55:08.267Z,12.32
2023-02-09T21:57:38.285Z,11.95
2023-02-09T22:00:09.038Z,11.90
2023-02-09T22:02:37.588Z,12.38
2023-02-09T22:05:06.697Z,11.85
2023-02-09T22:07:35.117Z,11.20
2023-02-09T22:10:03.331Z,11.60
2023-02-09T22:12:31.556Z,12.88
2023-02-09T22:15:01.048Z,12.55
2023-02-09T22:17:29.097Z,13.25
2023-02-09T22:19:57.238Z,13.27
2023-02-09T22:22:25.456Z,13.05
2023-02-09T22:24:53.644Z,11.55
2023-02-09T22:27:21.817Z,12.50
2023-02-09T22:29:49.904Z,12.32
2023-02-09T22:32:20.477Z,12.95
2023-02-09T22:34:48.562Z,12.05
2023-02-09T22:37:16.617Z,13.07
2023-02-09T22:39:46.556Z,13.02
2023-02-09T22:42:14.678Z,13.00
2023-02-09T22:44:42.994Z,13.00
2023-02-09T22:47:11.153Z,14.07
2023-02-09T22:49:40.638Z,13.35
2023-02-09T22:52:10.483Z,13.35
2023-02-09T22:54:38.837Z,13.65
2023-02-09T22:57:06.980Z,13.45
2023-02-09T22:59:36.299Z,13.43
2023-02-09T23:02:04.515Z,14.43
2023-02-09T23:04:33.046Z,15.75
2023-02-09T23:07:04.027Z,13.98
2023-02-09T23:09:32.400Z,14.13
2023-02-09T23:12:00.537Z,14.68
2023-02-09T23:14:28.692Z,14.75
2023-02-09T23:16:56.777Z,14.50
2023-02-09T23:19:25.995Z,14.05
2023-02-09T23:21:54.193Z,14.48
2023-02-09T23:24:24.531Z,14.27
2023-02-09T23:26:53.444Z,15.07
2023-02-09T23:29:22.029Z,14.55
2023-02-09T23:31:50.545Z,14.95
2023-02-09T23:34:20.859Z,14.65
2023-02-09T23:36:48.990Z,16.83
2023-02-09T23:39:22.375Z,15.23
2023-02-09T23:41:51.899Z,16.02
2023-02-09T23:44:20.034Z,15.55
2023-02-09T23:46:48.206Z,15.70
2023-02-09T23:49:16.347Z,15.55
2023-02-09T23:51:46.568Z,16.48
2023-02-09T23:54:15.006Z,17.25
2023-02-09T23:56:44.075Z,16.17
2023-02-09T23:59:16.944Z,18.88
